Time;durP1;ratioP1;P1;durP2;ratioP2;P2;SDS_P1;SDS_P2;PMS_P1;PMS_P2;Temp;Humidity;BMP_temperature;BMP_pressure;BME280_temperature;BME280_humidity;BME280_pressure;Samples;Min_cycle;Max_cycle;Signal;HPM_P1;HPM_P2
2023/04/18 00:00:11;;;;;;;24.52;16.73;;;8.50;99.90;;;;;;2081814;28;20078;-80
2023/04/18 00:01:15;;;;;;;27.30;17.25;;;8.50;99.90;;;;;;2073949;28;20021;-79
2023/04/18 00:02:17;;;;;;;25.90;17.42;;;8.50;99.90;;;;;;2068303;28;20767;-79
2023/04/18 00:03:19;;;;;;;29.08;19.27;;;8.50;99.90;;;;;;2080574;28;20025;-78
2023/04/18 00:04:20;;;;;;;28.15;19.15;;;8.50;99.90;;;;;;2079720;28;20523;-79
2023/04/18 00:05:20;;;;;;;28.30;19.83;;;8.50;99.90;;;;;;2073180;28;20021;-78
2023/04/18 00:06:21;;;;;;;28.10;19.27;;;8.60;99.90;;;;;;2070319;28;20038;-79
2023/04/18 00:07:21;;;;;;;27.05;18.52;;;8.60;99.90;;;;;;2081058;28;20044;-78
2023/04/18 00:08:22;;;;;;;30.20;20.88;;;8.60;99.90;;;;;;2078857;28;20041;-79
2023/04/18 00:09:24;;;;;;;32.40;21.23;;;8.60;99.90;;;;;;2065726;28;20040;-79
2023/04/18 00:10:24;;;;;;;30.80;21.27;;;8.60;99.90;;;;;;2058299;28;20117;-79
2023/04/18 00:11:25;;;;;;;32.65;21.98;;;8.60;99.90;;;;;;2070783;28;20544;-79
2023/04/18 00:12:25;;;;;;;32.30;21.58;;;8.60;99.90;;;;;;2072833;28;20551;-79
2023/04/18 00:13:27;;;;;;;30.75;20.80;;;8.60;99.90;;;;;;2081279;28;20412;-77
2023/04/18 00:14:28;;;;;;;33.25;21.92;;;8.60;99.90;;;;;;2088548;28;20024;-78
2023/04/18 00:15:30;;;;;;;33.85;23.15;;;8.60;99.90;;;;;;2090042;28;20455;-78
2023/04/18 00:16:32;;;;;;;37.15;24.67;;;8.60;99.90;;;;;;2073868;28;20033;-69
2023/04/18 00:17:34;;;;;;;35.45;23.80;;;8.60;99.90;;;;;;2075964;28;20037;-70
2023/04/18 00:18:35;;;;;;;39.92;25.65;;;8.60;99.90;;;;;;2078896;28;20047;-70
2023/04/18 00:19:37;;;;;;;41.10;28.55;;;8.60;99.90;;;;;;2080761;28;20527;-71
2023/04/18 00:20:38;;;;;;;38.67;26.70;;;8.70;99.90;;;;;;2079127;28;20033;-71
2023/04/18 00:21:43;;;;;;;45.80;30.92;;;8.70;99.90;;;;;;2080356;28;20064;-70
2023/04/18 00:22:45;;;;;;;44.33;31.48;;;8.60;99.90;;;;;;2079668;28;20017;-71
2023/04/18 00:23:45;;;;;;;42.58;29.77;;;8.60;99.90;;;;;;2088939;28;20020;-71
2023/04/18 00:24:50;;;;;;;40.30;28.30;;;8.60;99.90;;;;;;2091647;28;20094;-71
2023/04/18 00:25:50;;;;;;;43.05;29.38;;;8.60;99.90;;;;;;2078677;28;20033;-71
2023/04/18 00:26:51;;;;;;;41.97;29.65;;;8.60;99.90;;;;;;2080322;28;20459;-71
2023/04/18 00:27:51;;;;;;;45.15;30.58;;;8.70;99.90;;;;;;2078777;28;20899;-72
2023/04/18 00:28:52;;;;;;;40.47;29.20;;;8.70;99.90;;;;;;2073825;28;20569;-72
2023/04/18 00:29:52;;;;;;;38.28;28.40;;;8.70;99.90;;;;;;2070402;28;20034;-71
2023/04/18 00:30:53;;;;;;;45.72;31.27;;;8.70;99.90;;;;;;2076291;28;20403;-70
2023/04/18 00:31:54;;;;;;;45.88;32.60;;;8.80;99.90;;;;;;2092728;28;20655;-72
2023/04/18 00:32:55;;;;;;;45.42;31.80;;;8.70;99.90;;;;;;2084007;28;20063;-71
2023/04/18 00:33:56;;;;;;;44.38;31.17;;;8.70;99.90;;;;;;2078460;28;20082;-71
2023/04/18 00:34:57;;;;;;;41.25;30.30;;;8.70;99.90;;;;;;2069616;28;20542;-71
2023/04/18 00:35:58;;;;;;;43.75;31.08;;;8.70;99.90;;;;;;2081550;28;20037;-71
2023/04/18 00:36:58;;;;;;;43.78;31.38;;;8.70;99.90;;;;;;2074914;28;20299;-71
2023/04/18 00:37:59;;;;;;;40.75;29.55;;;8.70;99.90;;;;;;2076418;28;20290;-71
2023/04/18 00:39:00;;;;;;;46.08;32.30;;;8.70;99.90;;;;;;2078858;28;20356;-71
2023/04/18 00:40:00;;;;;;;47.85;32.83;;;8.70;99.90;;;;;;2079196;28;20412;-71
2023/04/18 00:41:01;;;;;;;41.70;30.33;;;8.70;99.90;;;;;;2076830;28;20021;-71
2023/04/18 00:42:02;;;;;;;43.17;31.15;;;8.70;99.90;;;;;;2079636;28;20311;-71
2023/04/18 00:43:06;;;;;;;43.90;31.58;;;8.70;99.90;;;;;;2084094;28;20104;-71
2023/04/18 00:44:07;;;;;;;46.38;31.50;;;8.70;99.90;;;;;;2075690;28;20086;-71
2023/04/18 00:45:08;;;;;;;45.40;32.25;;;8.70;99.90;;;;;;2083191;28;20087;-71
2023/04/18 00:46:09;;;;;;;42.35;30.55;;;8.80;99.90;;;;;;2082589;28;20024;-70
2023/04/18 00:47:10;;;;;;;41.88;29.90;;;8.80;99.90;;;;;;2084401;28;20071;-71
2023/04/18 00:48:10;;;;;;;41.78;30.80;;;8.80;99.90;;;;;;2082108;28;20052;-71
2023/04/18 00:49:11;;;;;;;43.10;31.70;;;8.80;99.90;;;;;;2087146;28;20024;-70
2023/04/18 00:50:13;;;;;;;43.22;31.02;;;8.80;99.90;;;;;;2084683;28;20021;-70
2023/04/18 00:51:15;;;;;;;41.58;30.65;;;8.80;99.90;;;;;;2084750;28;20462;-70
2023/04/18 00:52:17;;;;;;;44.03;31.67;;;8.80;99.90;;;;;;2085884;28;20024;-70
2023/04/18 00:53:17;;;;;;;47.42;32.80;;;8.80;99.90;;;;;;2074923;28;20408;-70
2023/04/18 00:54:18;;;;;;;46.95;34.15;;;8.80;99.90;;;;;;2082563;28;20033;-70
2023/04/18 00:55:20;;;;;;;48.78;34.60;;;8.80;99.90;;;;;;2085978;28;20029;-71
2023/04/18 00:56:22;;;;;;;48.45;33.00;;;8.70;99.90;;;;;;2086238;28;20045;-71
2023/04/18 00:57:24;;;;;;;44.05;32.78;;;8.70;99.90;;;;;;2089127;28;20109;-72
2023/04/18 00:58:25;;;;;;;44.75;32.33;;;8.80;99.90;;;;;;2088350;28;20025;-71
2023/04/18 00:59:26;;;;;;;49.13;32.92;;;8.80;99.90;;;;;;2084408;28;20527;-71
2023/04/18 01:00:26;;;;;;;43.53;31.58;;;8.80;99.90;;;;;;2084657;28;20021;-71
2023/04/18 01:01:27;;;;;;;45.08;32.80;;;8.70;99.90;;;;;;2079311;28;20161;-71
2023/04/18 01:02:29;;;;;;;43.00;31.50;;;8.80;99.90;;;;;;2085014;28;20063;-71
2023/04/18 01:03:31;;;;;;;43.38;31.95;;;8.70;99.90;;;;;;2088575;28;20028;-71
2023/04/18 01:04:32;;;;;;;42.33;30.40;;;8.80;99.90;;;;;;2082244;28;20415;-70
2023/04/18 01:05:34;;;;;;;44.08;32.35;;;8.80;99.90;;;;;;2089542;28;20052;-71
2023/04/18 01:06:35;;;;;;;45.40;33.35;;;8.80;99.90;;;;;;2093338;28;20029;-71
2023/04/18 01:07:39;;;;;;;48.03;34.00;;;8.80;99.90;;;;;;2082082;28;20025;-70
2023/04/18 01:08:41;;;;;;;44.92;33.30;;;8.70;99.90;;;;;;2080312;28;20460;-72
2023/04/18 01:09:42;;;;;;;42.50;31.92;;;8.80;99.90;;;;;;2078961;28;20033;-71
2023/04/18 01:10:43;;;;;;;44.25;31.10;;;8.80;99.90;;;;;;2080264;28;20034;-71
2023/04/18 01:11:44;;;;;;;47.00;33.47;;;8.80;99.90;;;;;;2082639;28;20361;-71
2023/04/18 01:12:44;;;;;;;48.20;34.13;;;8.80;99.90;;;;;;2093489;28;20116;-71
2023/04/18 01:14:06;;;;;;;48.00;33.65;;;8.80;99.90;;;;;;2088910;28;20053;-71
2023/04/18 01:15:10;;;;;;;45.13;32.17;;;8.70;99.90;;;;;;2082230;28;20112;-72
2023/04/18 01:16:10;;;;;;;49.83;35.42;;;8.70;99.90;;;;;;2078151;28;20091;-71
2023/04/18 01:17:12;;;;;;;47.22;34.75;;;8.70;99.90;;;;;;2082981;28;20445;-71
2023/04/18 01:18:15;;;;;;;48.83;35.33;;;8.70;99.90;;;;;;2084871;28;20033;-71
2023/04/18 01:19:16;;;;;;;46.13;34.58;;;8.80;99.90;;;;;;2085193;28;20063;-71
2023/04/18 01:20:20;;;;;;;46.67;34.13;;;8.80;99.90;;;;;;2075471;28;20051;-71
2023/04/18 01:21:21;;;;;;;50.50;34.60;;;8.80;99.90;;;;;;2076712;28;20464;-71
2023/04/18 01:22:22;;;;;;;46.88;34.22;;;8.80;99.90;;;;;;2084890;28;20601;-71
2023/04/18 01:23:23;;;;;;;48.95;35.58;;;8.80;99.90;;;;;;2093301;28;20395;-71
2023/04/18 01:24:25;;;;;;;49.83;32.88;;;8.80;99.90;;;;;;2094815;28;20051;-71
2023/04/18 01:25:26;;;;;;;47.03;33.13;;;8.70;99.90;;;;;;2091239;28;20016;-70
2023/04/18 01:26:30;;;;;;;44.78;33.05;;;8.80;99.90;;;;;;2086379;28;20554;-71
2023/04/18 01:27:30;;;;;;;44.15;32.75;;;8.70;99.90;;;;;;2082188;28;20415;-71
2023/04/18 01:28:35;;;;;;;49.92;36.03;;;8.70;99.90;;;;;;2091013;28;20032;-70
2023/04/18 01:29:36;;;;;;;50.03;36.28;;;8.70;99.90;;;;;;2090389;28;20028;-71
2023/04/18 01:30:37;;;;;;;47.75;35.00;;;8.70;99.90;;;;;;2094407;28;20723;-71
2023/04/18 01:31:38;;;;;;;47.13;34.35;;;8.70;99.90;;;;;;2086286;28;20032;-71
2023/04/18 01:32:40;;;;;;;47.35;34.60;;;8.70;99.90;;;;;;2082630;28;20058;-70
2023/04/18 01:33:41;;;;;;;46.63;35.10;;;8.70;99.90;;;;;;2079581;28;20021;-71
2023/04/18 01:34:42;;;;;;;48.35;34.58;;;8.60;99.90;;;;;;2085087;28;20017;-70
2023/04/18 01:35:42;;;;;;;48.60;35.92;;;8.70;99.90;;;;;;2096652;28;20296;-70
2023/04/18 01:36:43;;;;;;;50.17;36.55;;;8.70;99.90;;;;;;2091028;28;20100;-70
2023/04/18 01:37:45;;;;;;;48.55;35.10;;;8.70;99.90;;;;;;2083043;28;20112;-71
2023/04/18 01:38:46;;;;;;;48.47;35.60;;;8.60;99.90;;;;;;2077096;28;20022;-70
2023/04/18 01:39:47;;;;;;;52.08;37.17;;;8.60;99.90;;;;;;2077576;28;20041;-71
2023/04/18 01:40:48;;;;;;;49.28;35.95;;;8.60;99.90;;;;;;2082334;28;20021;-71
2023/04/18 01:41:48;;;;;;;48.20;35.40;;;8.60;99.90;;;;;;2092447;28;20052;-71
2023/04/18 01:42:50;;;;;;;51.20;36.70;;;8.60;99.90;;;;;;2081982;28;20025;-71
2023/04/18 01:43:51;;;;;;;51.85;37.20;;;8.60;99.90;;;;;;2075267;28;20041;-71
2023/04/18 01:44:51;;;;;;;51.22;36.42;;;8.60;99.90;;;;;;2076422;28;20063;-71
2023/04/18 01:45:52;;;;;;;55.03;38.28;;;8.50;99.90;;;;;;2068145;28;20044;-70
2023/04/18 01:46:52;;;;;;;52.50;37.88;;;8.60;99.90;;;;;;2076803;28;20740;-71
2023/04/18 01:47:53;;;;;;;59.80;39.45;;;8.60;99.90;;;;;;2092543;28;20518;-71
2023/04/18 01:48:54;;;;;;;56.17;39.55;;;8.60;99.90;;;;;;2080143;28;20045;-71
2023/04/18 01:49:55;;;;;;;56.75;40.28;;;8.50;99.90;;;;;;2070843;28;20101;-71
2023/04/18 01:50:56;;;;;;;55.22;38.47;;;8.50;99.90;;;;;;2077364;28;20038;-71
2023/04/18 01:51:56;;;;;;;57.58;39.30;;;8.50;99.90;;;;;;2079360;28;20037;-70
2023/04/18 01:52:57;;;;;;;54.55;38.17;;;8.50;99.90;;;;;;2082971;28;20512;-70
2023/04/18 01:53:57;;;;;;;57.42;39.65;;;8.50;99.90;;;;;;2080425;28;20025;-71
2023/04/18 01:55:00;;;;;;;54.72;38.58;;;8.60;99.90;;;;;;2082262;28;20059;-71
2023/04/18 01:56:01;;;;;;;55.90;39.33;;;8.50;99.90;;;;;;2079385;28;20121;-72
2023/04/18 01:57:02;;;;;;;57.47;39.05;;;8.60;99.90;;;;;;2087425;28;20064;-70
2023/04/18 01:58:02;;;;;;;55.88;38.15;;;8.60;99.90;;;;;;2091850;28;20032;-71
2023/04/18 01:59:03;;;;;;;56.92;39.50;;;8.50;99.90;;;;;;2073617;28;20033;-71
2023/04/18 02:00:05;;;;;;;56.30;39.67;;;8.50;99.90;;;;;;2077575;28;20467;-71
2023/04/18 02:01:14;;;;;;;58.53;39.97;;;8.50;99.90;;;;;;2086155;28;20554;-71
2023/04/18 02:02:15;;;;;;;54.72;38.38;;;8.60;99.90;;;;;;2092722;28;20048;-71
2023/04/18 02:03:16;;;;;;;53.78;37.65;;;8.50;99.90;;;;;;2082816;28;20408;-70
2023/04/18 02:04:16;;;;;;;53.78;37.55;;;8.50;99.90;;;;;;2079004;28;20017;-70
2023/04/18 02:05:20;;;;;;;55.97;38.13;;;8.60;99.90;;;;;;2078991;28;20044;-72
2023/04/18 02:06:20;;;;;;;52.90;37.30;;;8.50;99.90;;;;;;2074635;28;20645;-70
2023/04/18 02:07:21;;;;;;;54.63;38.05;;;8.50;99.90;;;;;;2092113;28;20465;-71
2023/04/18 02:08:22;;;;;;;56.03;38.53;;;8.50;99.90;;;;;;2094184;28;20048;-71
2023/04/18 02:09:23;;;;;;;53.83;38.28;;;8.50;99.90;;;;;;2090537;28;20028;-72
2023/04/18 02:10:23;;;;;;;56.28;38.92;;;8.50;99.90;;;;;;2081455;28;20040;-72
2023/04/18 02:11:24;;;;;;;54.85;39.35;;;8.50;99.90;;;;;;2084019;28;20859;-71
2023/04/18 02:12:24;;;;;;;57.90;38.95;;;8.50;99.90;;;;;;2093777;28;20206;-72
2023/04/18 02:13:26;;;;;;;57.65;38.03;;;8.50;99.90;;;;;;2082198;28;20021;-72
2023/04/18 02:14:31;;;;;;;56.60;38.50;;;8.50;99.90;;;;;;2071219;28;20112;-72
2023/04/18 02:15:34;;;;;;;56.20;37.80;;;8.50;99.90;;;;;;2077655;28;20028;-71
2023/04/18 02:16:35;;;;;;;56.15;38.17;;;8.40;99.90;;;;;;2084388;28;20119;-72
2023/04/18 02:17:36;;;;;;;53.47;37.60;;;8.40;99.90;;;;;;2091491;28;20047;-72
2023/04/18 02:18:38;;;;;;;56.67;37.60;;;8.40;99.90;;;;;;2081570;28;20147;-71
2023/04/18 02:19:40;;;;;;;52.40;36.30;;;8.40;99.90;;;;;;2074070;28;20060;-72
2023/04/18 02:20:41;;;;;;;51.70;36.38;;;8.40;99.90;;;;;;2083451;28;20594;-71
2023/04/18 02:21:43;;;;;;;52.08;35.97;;;8.40;99.90;;;;;;2085130;28;20037;-72
2023/04/18 02:22:43;;;;;;;54.03;36.95;;;8.40;99.90;;;;;;2090556;28;20539;-71
2023/04/18 02:23:44;;;;;;;52.53;37.63;;;8.40;99.90;;;;;;2092792;28;20036;-71
2023/04/18 02:24:45;;;;;;;55.25;38.58;;;8.40;99.90;;;;;;2086791;28;20021;-71
2023/04/18 02:25:45;;;;;;;55.00;37.72;;;8.40;99.90;;;;;;2082441;28;20060;-71
2023/04/18 02:26:46;;;;;;;54.80;38.35;;;8.40;99.90;;;;;;2084208;28;20036;-72
2023/04/18 02:27:46;;;;;;;52.95;38.25;;;8.40;99.90;;;;;;2081743;28;20036;-72
2023/04/18 02:28:47;;;;;;;55.28;37.90;;;8.40;99.90;;;;;;2082072;28;20523;-72
2023/04/18 02:29:47;;;;;;;56.22;40.13;;;8.40;99.90;;;;;;2087092;28;20044;-72
2023/04/18 02:30:48;;;;;;;54.63;38.08;;;8.40;99.90;;;;;;2083746;28;20535;-71
2023/04/18 02:31:48;;;;;;;55.83;39.50;;;8.40;99.90;;;;;;2082679;28;20162;-70
2023/04/18 02:32:51;;;;;;;55.22;38.28;;;8.40;99.90;;;;;;2078520;28;20112;-70
2023/04/18 02:33:51;;;;;;;54.15;38.65;;;8.50;99.90;;;;;;2082348;28;20052;-70
2023/04/18 02:34:55;;;;;;;52.65;38.08;;;8.40;99.90;;;;;;2077236;28;20099;-71
2023/04/18 02:35:56;;;;;;;56.60;39.90;;;8.40;99.90;;;;;;2083111;28;20033;-71
2023/04/18 02:36:56;;;;;;;54.90;38.47;;;8.40;99.90;;;;;;2088835;28;20025;-72
2023/04/18 02:37:57;;;;;;;52.55;37.67;;;8.40;99.90;;;;;;2081809;28;20033;-72
2023/04/18 02:38:58;;;;;;;53.22;38.35;;;8.40;99.90;;;;;;2083491;28;20312;-72
2023/04/18 02:39:58;;;;;;;54.78;37.95;;;8.40;99.90;;;;;;2088937;28;20336;-70
2023/04/18 02:41:03;;;;;;;54.42;38.08;;;8.40;99.90;;;;;;2081690;28;20037;-72
2023/04/18 02:42:04;;;;;;;53.03;37.85;;;8.40;99.90;;;;;;2086341;28;20156;-71
2023/04/18 02:43:05;;;;;;;54.55;38.17;;;8.50;99.90;;;;;;2081789;28;20029;-71
2023/04/18 02:44:06;;;;;;;53.42;37.83;;;8.40;99.90;;;;;;2087853;28;20033;-73
2023/04/18 02:45:10;;;;;;;53.60;37.15;;;8.40;99.90;;;;;;2076677;28;20103;-71
2023/04/18 02:46:11;;;;;;;49.75;36.78;;;8.40;99.90;;;;;;2073745;28;20041;-71
2023/04/18 02:47:12;;;;;;;53.58;37.72;;;8.40;99.90;;;;;;2075648;28;20051;-71
2023/04/18 02:48:15;;;;;;;51.17;36.78;;;8.50;99.90;;;;;;2069450;28;20058;-71
2023/04/18 02:49:18;;;;;;;52.72;36.65;;;8.40;99.90;;;;;;2076132;28;20017;-72
2023/04/18 02:50:19;;;;;;;52.95;37.10;;;8.50;99.90;;;;;;2084231;28;20033;-71
2023/04/18 02:51:20;;;;;;;53.15;37.75;;;8.40;99.90;;;;;;2085198;28;20078;-72
2023/04/18 02:52:21;;;;;;;49.38;36.28;;;8.40;99.90;;;;;;2071907;28;20401;-71
2023/04/18 02:53:23;;;;;;;52.90;37.30;;;8.40;99.90;;;;;;2065187;28;20073;-71
2023/04/18 02:54:27;;;;;;;53.42;37.45;;;8.40;99.90;;;;;;2073968;28;20458;-71
2023/04/18 02:55:37;;;;;;;51.17;36.33;;;8.40;99.90;;;;;;2081418;28;20013;-71
2023/04/18 02:56:38;;;;;;;51.15;37.33;;;8.40;99.90;;;;;;2078634;28;20040;-71
2023/04/18 02:57:56;;;;;;;50.08;35.65;;;8.30;99.90;;;;;;2081040;28;20040;-71
2023/04/18 02:59:15;;;;;;;52.17;35.97;;;8.30;99.90;;;;;;2088556;28;20809;-72
2023/04/18 03:00:42;;;;;;;49.85;35.05;;;8.30;99.90;;;;;;2060686;28;20037;-72
2023/04/18 03:01:43;;;;;;;49.05;35.25;;;8.30;99.90;;;;;;2095229;28;20399;-72
2023/04/18 03:02:46;;;;;;;51.13;35.78;;;8.30;99.90;;;;;;2077049;28;20030;-72
2023/04/18 03:03:59;;;;;;;50.17;35.50;;;8.20;99.90;;;;;;2078344;28;21114;-72
2023/04/18 03:05:11;;;;;;;47.47;34.58;;;8.20;99.90;;;;;;2078852;28;20033;-72
2023/04/18 03:06:12;;;;;;;42.80;31.85;;;8.20;99.90;;;;;;2082477;28;20059;-72
2023/04/18 03:07:13;;;;;;;45.83;32.78;;;8.20;99.90;;;;;;2082305;28;20035;-71
2023/04/18 03:08:15;;;;;;;47.85;34.08;;;8.10;99.90;;;;;;2070452;28;20033;-71
2023/04/18 03:09:15;;;;;;;47.42;34.17;;;8.10;99.90;;;;;;2066176;28;20068;-71
2023/04/18 03:10:21;;;;;;;44.83;32.50;;;8.10;99.90;;;;;;2074558;28;20032;-71
2023/04/18 03:11:21;;;;;;;46.63;32.70;;;8.10;99.90;;;;;;2076551;28;20112;-71
2023/04/18 03:12:22;;;;;;;46.47;32.78;;;8.20;99.90;;;;;;2069675;28;20405;-71
2023/04/18 03:13:23;;;;;;;47.25;33.42;;;8.20;99.90;;;;;;2059863;28;20022;-71
2023/04/18 03:14:24;;;;;;;48.05;32.17;;;8.20;99.90;;;;;;2072344;28;20029;-72
2023/04/18 03:15:30;;;;;;;43.58;30.90;;;8.20;99.90;;;;;;2070354;28;20148;-71
2023/04/18 03:16:31;;;;;;;41.88;30.50;;;8.20;99.90;;;;;;2082945;28;20107;-72
2023/04/18 03:17:31;;;;;;;46.28;32.92;;;8.10;99.90;;;;;;2086154;28;20561;-72
2023/04/18 03:18:33;;;;;;;44.03;31.13;;;8.20;99.90;;;;;;2071757;28;20112;-71
2023/04/18 03:19:33;;;;;;;47.63;32.97;;;8.20;99.90;;;;;;2078417;28;20125;-71
2023/04/18 03:20:40;;;;;;;46.30;32.10;;;8.20;99.90;;;;;;2084759;28;20388;-71
2023/04/18 03:21:41;;;;;;;44.47;32.20;;;8.20;99.90;;;;;;2084217;28;20025;-71
2023/04/18 03:22:42;;;;;;;45.70;33.25;;;8.20;99.90;;;;;;2083041;28;20548;-71
2023/04/18 03:23:43;;;;;;;48.35;34.00;;;8.20;99.90;;;;;;2082536;28;20547;-71
2023/04/18 03:24:44;;;;;;;50.00;33.72;;;8.20;99.90;;;;;;2075241;28;20056;-71
2023/04/18 03:25:46;;;;;;;48.83;34.20;;;8.20;99.90;;;;;;2083402;28;20021;-71
2023/04/18 03:26:46;;;;;;;47.95;34.22;;;8.10;99.90;;;;;;2083696;28;20116;-73
2023/04/18 03:27:47;;;;;;;51.97;35.55;;;8.10;99.90;;;;;;2070471;28;20034;-72
2023/04/18 03:28:50;;;;;;;50.80;35.67;;;8.10;99.90;;;;;;2079569;28;20075;-71
2023/04/18 03:29:50;;;;;;;50.60;35.10;;;8.10;99.90;;;;;;2089429;28;20048;-71
2023/04/18 03:30:51;;;;;;;50.92;34.95;;;8.10;99.90;;;;;;2089485;28;20035;-71
2023/04/18 03:31:51;;;;;;;50.95;35.15;;;8.10;99.90;;;;;;2089745;28;20036;-71
2023/04/18 03:32:54;;;;;;;51.10;36.65;;;8.10;99.90;;;;;;2099629;28;20032;-71
2023/04/18 03:33:55;;;;;;;50.22;34.63;;;8.00;99.90;;;;;;2099588;28;20589;-71
2023/04/18 03:34:55;;;;;;;49.03;34.13;;;8.00;99.90;;;;;;2083846;28;20028;-71
2023/04/18 03:35:56;;;;;;;50.15;34.40;;;8.00;99.90;;;;;;2085006;28;20024;-71
2023/04/18 03:36:57;;;;;;;50.67;36.15;;;8.00;99.90;;;;;;2098037;28;20079;-70
2023/04/18 03:37:59;;;;;;;54.40;36.60;;;8.00;99.90;;;;;;2075238;28;20075;-71
2023/04/18 03:39:03;;;;;;;51.10;34.83;;;8.10;99.90;;;;;;2075774;28;20032;-70
2023/04/18 03:40:05;;;;;;;52.67;36.35;;;8.10;99.90;;;;;;2073051;28;20144;-71
2023/04/18 03:41:05;;;;;;;53.05;35.63;;;8.10;99.90;;;;;;2081339;28;20041;-71
2023/04/18 03:42:08;;;;;;;52.90;36.78;;;8.10;99.90;;;;;;2089317;28;20062;-71
2023/04/18 03:43:09;;;;;;;53.67;36.65;;;8.10;99.90;;;;;;2083182;28;20393;-72
2023/04/18 03:44:10;;;;;;;56.83;37.15;;;8.10;99.90;;;;;;2081054;28;20068;-71
2023/04/18 03:45:13;;;;;;;51.75;35.85;;;8.00;99.90;;;;;;2080587;28;20789;-71
2023/04/18 03:46:14;;;;;;;52.22;36.08;;;8.00;99.90;;;;;;2072902;28;20053;-71
2023/04/18 03:47:15;;;;;;;54.22;35.75;;;8.00;99.90;;;;;;2081092;28;20041;-72
2023/04/18 03:48:18;;;;;;;51.03;34.97;;;7.90;99.90;;;;;;2077824;28;20036;-71
2023/04/18 03:49:20;;;;;;;55.05;36.15;;;8.00;99.90;;;;;;2074757;28;20871;-71
2023/04/18 03:50:23;;;;;;;55.35;37.70;;;8.00;99.90;;;;;;2084079;28;20378;-71
2023/04/18 03:51:23;;;;;;;55.45;36.63;;;8.00;99.90;;;;;;2065502;28;20090;-71
2023/04/18 03:52:24;;;;;;;55.35;36.17;;;8.00;99.90;;;;;;2064802;28;20048;-76
2023/04/18 03:53:24;;;;;;;53.33;36.00;;;8.00;99.90;;;;;;2087477;28;20720;-79
2023/04/18 03:54:25;;;;;;;61.65;37.95;;;8.00;99.90;;;;;;2080875;28;20036;-70
2023/04/18 03:55:26;;;;;;;55.17;37.30;;;8.00;99.90;;;;;;2072547;28;20022;-79
2023/04/18 03:56:28;;;;;;;57.58;37.63;;;7.90;99.90;;;;;;2073069;28;20018;-73
2023/04/18 03:57:29;;;;;;;55.20;36.70;;;7.90;99.90;;;;;;2071905;28;20543;-73
2023/04/18 03:58:30;;;;;;;55.75;36.45;;;7.90;99.90;;;;;;2084783;28;20032;-73
2023/04/18 03:59:30;;;;;;;57.50;37.33;;;7.90;99.90;;;;;;2077728;28;20586;-74
2023/04/18 04:00:31;;;;;;;58.05;37.92;;;7.90;99.90;;;;;;2074562;28;20341;-73
2023/04/18 04:01:40;;;;;;;58.03;36.15;;;7.90;99.90;;;;;;2079286;28;20033;-73
2023/04/18 04:02:41;;;;;;;52.35;35.85;;;7.80;99.90;;;;;;2076194;28;20558;-73
2023/04/18 04:03:43;;;;;;;55.13;36.75;;;7.80;99.90;;;;;;2075348;28;20198;-73
2023/04/18 04:04:43;;;;;;;59.45;36.60;;;7.80;99.90;;;;;;2082801;28;20511;-73
2023/04/18 04:05:45;;;;;;;58.03;37.15;;;7.80;99.90;;;;;;2078099;28;20046;-73
2023/04/18 04:06:46;;;;;;;59.33;38.70;;;7.80;99.90;;;;;;2078702;28;20615;-70
2023/04/18 04:07:47;;;;;;;57.10;37.33;;;7.80;99.90;;;;;;2074129;28;20045;-70
2023/04/18 04:08:48;;;;;;;56.05;36.80;;;7.80;99.90;;;;;;2080197;28;20036;-70
2023/04/18 04:09:53;;;;;;;57.55;37.50;;;7.80;99.90;;;;;;2080436;28;20044;-70
2023/04/18 04:10:55;;;;;;;56.50;37.25;;;7.80;99.90;;;;;;2076471;28;20032;-70
2023/04/18 04:11:57;;;;;;;58.50;36.63;;;7.80;99.90;;;;;;2072492;28;20025;-70
2023/04/18 04:12:58;;;;;;;59.15;36.90;;;7.80;99.90;;;;;;2074415;28;20057;-70
2023/04/18 04:13:59;;;;;;;60.45;38.30;;;7.80;99.90;;;;;;2074617;28;20049;-71
2023/04/18 04:15:06;;;;;;;58.67;38.47;;;7.80;99.90;;;;;;2075289;28;20108;-71
2023/04/18 04:16:08;;;;;;;56.13;36.95;;;7.80;99.90;;;;;;2076367;28;20039;-70
2023/04/18 04:17:10;;;;;;;57.55;37.33;;;7.80;99.90;;;;;;2086932;28;20029;-69
2023/04/18 04:18:11;;;;;;;54.03;35.85;;;7.80;99.90;;;;;;2074518;28;20021;-69
2023/04/18 04:19:15;;;;;;;55.05;36.05;;;7.70;99.90;;;;;;2074387;28;20049;-69
2023/04/18 04:20:25;;;;;;;53.30;35.70;;;7.70;99.90;;;;;;2074145;28;20022;-68
2023/04/18 04:21:33;;;;;;;56.83;36.28;;;7.80;99.90;;;;;;2075370;28;20029;-69
2023/04/18 04:22:35;;;;;;;58.53;37.83;;;7.80;99.90;;;;;;2074154;28;20026;-68
2023/04/18 04:23:36;;;;;;;61.25;38.05;;;7.70;99.90;;;;;;2082806;28;20029;-70
2023/04/18 04:24:38;;;;;;;58.40;36.95;;;7.70;99.90;;;;;;2082831;28;20119;-69
2023/04/18 04:25:39;;;;;;;55.22;36.45;;;7.70;99.90;;;;;;2076773;28;20104;-68
2023/04/18 04:26:49;;;;;;;56.25;35.88;;;7.70;99.90;;;;;;2073114;28;20332;-68
2023/04/18 04:27:53;;;;;;;53.03;35.60;;;7.70;99.90;;;;;;2075450;28;20033;-69
2023/04/18 04:28:56;;;;;;;58.60;36.08;;;7.70;99.90;;;;;;2077610;28;20556;-70
2023/04/18 04:30:01;;;;;;;55.58;36.05;;;7.70;99.90;;;;;;2078205;28;20542;-69
2023/04/18 04:31:06;;;;;;;55.45;35.78;;;7.70;99.90;;;;;;2077848;28;20041;-73
2023/04/18 04:32:08;;;;;;;55.15;35.88;;;7.70;99.90;;;;;;2078088;28;20366;-73
2023/04/18 04:33:11;;;;;;;58.97;36.65;;;7.60;99.90;;;;;;2084864;28;20029;-73
2023/04/18 04:34:12;;;;;;;55.20;36.15;;;7.60;99.90;;;;;;2078877;28;20036;-73
2023/04/18 04:35:13;;;;;;;58.28;36.55;;;7.60;99.90;;;;;;2078342;28;20392;-72
2023/04/18 04:36:15;;;;;;;58.25;36.17;;;7.60;99.90;;;;;;2078482;28;20108;-73
2023/04/18 04:37:20;;;;;;;54.83;36.15;;;7.60;99.90;;;;;;2070631;28;20048;-72
2023/04/18 04:38:40;;;;;;;57.90;36.58;;;7.60;99.90;;;;;;2076383;28;20198;-69
2023/04/18 04:39:41;;;;;;;59.63;35.65;;;7.60;99.90;;;;;;2082680;28;20287;-71
2023/04/18 04:41:10;;;;;;;61.30;37.38;;;7.50;99.90;;;;;;2076065;28;20035;-72
2023/04/18 04:42:12;;;;;;;57.17;36.30;;;7.50;99.90;;;;;;2082284;28;20115;-71
2023/04/18 04:43:22;;;;;;;57.45;36.15;;;7.50;99.90;;;;;;2076797;28;20439;-71
2023/04/18 04:44:25;;;;;;;56.15;36.22;;;7.50;99.90;;;;;;2072472;28;20559;-71
2023/04/18 04:45:27;;;;;;;57.05;35.60;;;7.60;99.90;;;;;;2074800;28;20021;-68
2023/04/18 04:46:29;;;;;;;57.40;36.25;;;7.60;99.90;;;;;;2074125;28;20037;-70
2023/04/18 04:47:30;;;;;;;60.42;36.35;;;7.60;99.90;;;;;;2076448;28;20029;-71
2023/04/18 04:48:31;;;;;;;58.75;37.28;;;7.60;99.90;;;;;;2082558;28;20479;-68
2023/04/18 04:49:31;;;;;;;56.15;36.20;;;7.50;99.90;;;;;;2091596;28;20028;-69
2023/04/18 04:50:37;;;;;;;55.83;36.25;;;7.60;99.90;;;;;;2091308;28;20024;-70
2023/04/18 04:51:38;;;;;;;58.25;35.22;;;7.60;99.90;;;;;;2091222;28;20127;-69
2023/04/18 04:52:40;;;;;;;54.55;36.15;;;7.60;99.90;;;;;;2083850;28;20512;-71
2023/04/18 04:53:40;;;;;;;56.03;36.38;;;7.60;99.90;;;;;;2075684;28;20037;-68
2023/04/18 04:54:43;;;;;;;57.33;37.03;;;7.60;99.90;;;;;;2077823;28;20035;-68
2023/04/18 04:55:46;;;;;;;56.97;36.20;;;7.60;99.90;;;;;;2074245;28;20078;-68
2023/04/18 04:56:46;;;;;;;62.97;37.53;;;7.60;99.90;;;;;;2080735;28;20663;-69
2023/04/18 04:57:47;;;;;;;59.80;36.75;;;7.50;99.90;;;;;;2073958;28;20033;-69
2023/04/18 04:59:08;;;;;;;;;;;7.50;99.90;;;;;;2065887;28;20515;-69
2023/04/18 05:00:19;;;;;;;60.67;34.47;;;7.50;99.90;;;;;;2090788;28;19953;-69
2023/04/18 05:01:20;;;;;;;58.92;35.35;;;7.60;99.90;;;;;;2086993;28;20454;-75
2023/04/18 05:02:22;;;;;;;54.13;34.80;;;7.60;99.90;;;;;;2065635;28;20798;-71
2023/04/18 05:03:22;;;;;;;55.25;35.15;;;7.60;99.90;;;;;;2072358;28;20079;-69
2023/04/18 05:04:24;;;;;;;57.08;35.63;;;7.60;99.90;;;;;;2080442;28;20040;-70
2023/04/18 05:05:24;;;;;;;56.90;35.17;;;7.60;99.90;;;;;;2084139;28;20040;-68
2023/04/18 05:06:25;;;;;;;54.83;35.33;;;7.60;99.90;;;;;;2089938;28;20032;-68
2023/04/18 05:07:25;;;;;;;55.95;35.72;;;7.60;99.90;;;;;;2083035;28;20033;-73
2023/04/18 05:08:26;;;;;;;52.78;33.50;;;7.60;99.90;;;;;;2068590;28;20874;-66
2023/04/18 05:09:27;;;;;;;52.72;34.05;;;7.60;99.90;;;;;;2073348;28;20497;-70
2023/04/18 05:10:28;;;;;;;57.53;36.08;;;7.70;99.90;;;;;;2074729;28;20037;-69
2023/04/18 05:11:28;;;;;;;55.63;34.60;;;7.70;99.90;;;;;;2067136;28;20086;-70
2023/04/18 05:12:30;;;;;;;53.78;34.33;;;7.60;99.90;;;;;;2072946;28;20034;-71
2023/04/18 05:13:30;;;;;;;57.17;34.92;;;7.60;99.90;;;;;;2093995;28;20031;-70
2023/04/18 05:14:31;;;;;;;53.45;34.33;;;7.60;99.90;;;;;;2085998;28;20056;-70
2023/04/18 05:15:31;;;;;;;55.22;34.65;;;7.60;99.90;;;;;;2070918;28;20038;-71
2023/04/18 05:16:32;;;;;;;51.83;33.38;;;7.60;99.90;;;;;;2077645;28;20348;-71
2023/04/18 05:17:33;;;;;;;53.08;33.58;;;7.50;99.90;;;;;;2090091;28;20163;-73
2023/04/18 05:18:37;;;;;;;52.10;32.75;;;7.60;99.90;;;;;;2088657;28;20032;-69
2023/04/18 05:19:39;;;;;;;54.38;32.97;;;7.60;99.90;;;;;;2090107;28;20560;-71